Dauntless Aviation
Greetings, Guest! To participate, [sign up for a free account] or [log in]
Airports Europe Germany
EDSW

Altdorf-Wallburg

Altdorf-Wallburg, GERMANY

Airport Info
Edit

Location

Latitude / Longitude: 48°16'11"N / 7°50'31"E
  48°16.188'N / 7°50.532'E
  48.2698 / 7.8422
Satellite photo at:
Airport distance calculator
From:
Weather Reports

METAR

LFST
18.2nm NW
LFST 301900Z AUTO VRB03KT 9999 OVC044 21/18 Q1014
EDSB
32.3nm N
EDSB 301850Z VRB02KT 9999 VCSH FEW028 BKN044 20/17 Q1013

TAF

EDTL
5.8nm NW
TAF EDTL 301700Z 3018/3024 VRB03KT 9000 BKN035
LFST
18.2nm NW
TAF LFST 301705Z 3018/3118 31005KT 9999 SCT025 BKN050 TEMPO 3102/3107 4000 BR BKN005 TEMPO 3112/3117 FEW040TCU
EDSB
32.3nm N
TAF EDSB 301700Z 3018/3118 VRB03KT 9999 SCT035 PROB30 TEMPO 3102/3107 3500 BR
Safelog

 

Dauntless Aviation

© 2007-2014 Dauntless Aviation, all rights reserved
Information provided via PilotNav comes from a variety of official and unofficial data sources. As errors are possible, do not use PilotNav for primary flight planning purposes. Verify any information that you receive via PilotNav with current and canonical charts and other official documents. The material in this database is subject to database copyrights held by Dauntless Aviation and may not be copied without the express permission of Dauntless Aviation - licenses for use of part of all of this data are available for purchase; enquire via the Dauntless Aviation helpdesk. A number of mechanisms and markers exist in the database to protect against and identify infringement / copyright. Automated queries against this website are stictly prohibited, and all activity is logged and analyzed.